Time;durP1;ratioP1;P1;durP2;ratioP2;P2;SDS_P1;SDS_P2;PMS_P1;PMS_P2;Temp;Humidity;BMP_temperature;BMP_pressure;BME280_temperature;BME280_humidity;BME280_pressure;Samples;Min_cycle;Max_cycle;Signal;HPM_P1;HPM_P2
2023/01/15 00:00:36;;;;;;;1.17;0.47;;;;;;;10.46;100.00;97575.03;5044853;28;20040;-73
2023/01/15 00:03:02;;;;;;;0.75;0.40;;;;;;;10.51;100.00;97577.06;5038452;28;20026;-73
2023/01/15 00:05:27;;;;;;;1.02;0.20;;;;;;;10.35;100.00;97547.97;5049097;28;20531;-74
2023/01/15 00:07:52;;;;;;;0.35;0.20;;;;;;;10.36;100.00;97573.97;5033729;28;20030;-73
2023/01/15 00:10:18;;;;;;;0.30;0.20;;;;;;;10.42;100.00;97565.72;5039430;28;20026;-74
2023/01/15 00:12:43;;;;;;;0.50;0.22;;;;;;;10.38;100.00;97540.22;5042100;28;20022;-73
2023/01/15 00:15:09;;;;;;;0.85;0.20;;;;;;;10.38;100.00;97534.81;5028596;28;20033;-73
2023/01/15 00:17:34;;;;;;;1.02;0.30;;;;;;;10.47;100.00;97554.22;5023227;28;20017;-73
2023/01/15 00:19:59;;;;;;;1.02;0.50;;;;;;;10.28;100.00;97532.69;5027641;28;20037;-73
2023/01/15 00:22:24;;;;;;;0.60;0.30;;;;;;;10.26;100.00;97528.53;5037235;28;20403;-73
2023/01/15 00:27:40;;;;;;;0.47;0.30;;;;;;;10.06;100.00;97518.03;5032313;28;20084;-73
2023/01/15 00:30:08;;;;;;;0.85;0.40;;;;;;;10.17;100.00;97536.16;5012547;28;20061;-73
2023/01/15 00:32:33;;;;;;;1.58;0.50;;;;;;;10.16;100.00;97518.28;5013421;28;20043;-73
2023/01/15 00:34:59;;;;;;;1.95;0.30;;;;;;;10.18;100.00;97508.06;5036274;28;20029;-73
2023/01/15 00:37:24;;;;;;;0.28;0.15;;;;;;;10.39;100.00;97522.13;5028495;28;20022;-73
2023/01/15 00:39:49;;;;;;;1.08;0.30;;;;;;;10.37;100.00;97503.41;5028628;28;20025;-75
2023/01/15 00:42:16;;;;;;;0.90;0.40;;;;;;;10.45;100.00;97519.31;5044457;28;20044;-73
2023/01/15 00:44:42;;;;;;;0.65;0.38;;;;;;;10.49;100.00;97516.97;5032482;28;20100;-73
2023/01/15 00:47:13;;;;;;;0.75;0.20;;;;;;;10.36;100.00;97498.25;5020523;28;20021;-73
2023/01/15 00:49:38;;;;;;;0.65;0.30;;;;;;;10.36;100.00;97506.38;5015688;28;20030;-73
2023/01/15 00:52:03;;;;;;;0.40;0.10;;;;;;;10.25;100.00;97481.78;5015161;28;20032;-75
2023/01/15 00:54:29;;;;;;;0.65;0.20;;;;;;;10.36;100.00;97496.38;5043038;28;20033;-75
2023/01/15 00:56:54;;;;;;;0.43;0.25;;;;;;;10.30;100.00;97471.09;5040901;28;20024;-76
2023/01/15 00:59:19;;;;;;;0.88;0.43;;;;;;;10.38;100.00;97482.63;5038908;28;20086;-75
2023/01/15 01:01:44;;;;;;;0.20;0.20;;;;;;;10.41;100.00;97466.75;5015549;28;20033;-77
2023/01/15 01:04:10;;;;;;;0.68;0.20;;;;;;;10.56;100.00;97487.09;5032877;28;20095;-77
2023/01/15 01:06:35;;;;;;;0.85;0.20;;;;;;;10.44;100.00;97460.88;5035541;28;20032;-76
2023/01/15 01:09:00;;;;;;;0.25;0.20;;;;;;;10.50;100.00;97462.63;5032843;28;20446;-75
2023/01/15 01:11:27;;;;;;;0.70;0.20;;;;;;;10.48;100.00;97450.44;5013964;28;20033;-76
2023/01/15 01:13:55;;;;;;;0.47;0.20;;;;;;;10.69;100.00;97467.94;5006513;28;20025;-73
2023/01/15 01:16:23;;;;;;;0.40;0.20;;;;;;;10.60;100.00;97453.94;5047370;28;20109;-75
2023/01/15 01:18:49;;;;;;;3.20;0.20;;;;;;;10.53;100.00;97445.97;5031507;28;20719;-75
2023/01/15 01:21:14;;;;;;;0.80;0.28;;;;;;;10.67;100.00;97470.88;5018930;28;20033;-76
2023/01/15 01:23:39;;;;;;;0.60;0.30;;;;;;;10.51;100.00;97439.97;5034399;28;20064;-75
2023/01/15 01:26:04;;;;;;;1.98;0.30;;;;;;;10.50;100.00;97451.81;5029256;28;20021;-77
2023/01/15 01:28:30;;;;;;;1.65;0.30;;;;;;;10.50;100.00;97457.22;5032169;28;20030;-76
2023/01/15 01:30:55;;;;;;;0.17;0.13;;;;;;;10.45;100.00;97456.28;5041127;28;20029;-74
2023/01/15 01:33:20;;;;;;;0.57;0.20;;;;;;;10.56;100.00;97457.34;5026594;28;20040;-74
2023/01/15 01:35:49;;;;;;;0.10;0.10;;;;;;;10.53;100.00;97443.25;5019693;28;20037;-75
2023/01/15 01:38:15;;;;;;;0.20;0.20;;;;;;;10.57;100.00;97449.00;5030181;28;20036;-76
2023/01/15 01:40:40;;;;;;;0.30;0.28;;;;;;;10.62;100.00;97441.00;5021640;28;20029;-75
2023/01/15 01:43:18;;;;;;;0.35;0.20;;;;;;;10.61;100.00;97433.13;5045505;28;20032;-75
2023/01/15 01:45:43;;;;;;;0.80;0.17;;;;;;;10.69;100.00;97427.38;5027199;28;20026;-76
2023/01/15 01:48:08;;;;;;;0.30;0.20;;;;;;;10.64;100.00;97429.97;5036991;28;20029;-76
2023/01/15 01:50:36;;;;;;;0.20;0.15;;;;;;;10.62;100.00;97419.38;5027580;28;20037;-74
2023/01/15 01:53:07;;;;;;;1.30;0.20;;;;;;;10.61;100.00;97417.72;5017616;28;20364;-73
2023/01/15 01:55:34;;;;;;;0.35;0.10;;;;;;;10.60;100.00;97404.44;5008898;28;20037;-74
2023/01/15 01:58:02;;;;;;;0.28;0.10;;;;;;;10.60;100.00;97413.38;5040275;28;20037;-76
2023/01/15 02:00:30;;;;;;;0.40;0.22;;;;;;;10.72;100.00;97414.19;5007597;28;20025;-75
2023/01/15 02:02:56;;;;;;;0.25;0.05;;;;;;;10.68;100.00;97406.78;5015238;28;20120;-76
2023/01/15 02:05:33;;;;;;;0.25;0.10;;;;;;;10.75;100.00;97408.28;5014954;28;20805;-76
2023/01/15 02:07:59;;;;;;;1.48;0.17;;;;;;;10.78;100.00;97406.16;5014416;28;20033;-74
2023/01/15 02:10:25;;;;;;;0.17;0.17;;;;;;;10.70;100.00;97405.47;5029722;28;20060;-75
2023/01/15 02:13:03;;;;;;;0.45;0.20;;;;;;;10.63;100.00;97372.31;5013900;28;20452;-76
2023/01/15 02:15:37;;;;;;;0.47;0.25;;;;;;;10.33;100.00;97352.75;5030381;28;20091;-75
2023/01/15 02:18:16;;;;;;;1.17;0.20;;;;;;;10.52;100.00;97408.31;5046859;28;20033;-77
2023/01/15 02:21:05;;;;;;;0.35;0.35;;;;;;;10.34;100.00;97384.13;5024343;28;20025;-75
2023/01/15 02:23:50;;;;;;;;;;;;;;;10.44;100.00;97400.56;5023204;28;20100;-76
2023/01/15 02:26:37;;;;;;;0.10;0.05;;;;;;;10.35;100.00;97380.34;5032977;28;19920;-76
2023/01/15 02:29:09;;;;;;;1.00;0.47;;;;;;;10.43;100.00;97390.84;5008109;28;20067;-76
2023/01/15 02:31:40;;;;;;;0.15;0.10;;;;;;;10.47;100.00;97390.09;5036067;28;20033;-77
2023/01/15 02:34:22;;;;;;;0.10;0.10;;;;;;;10.52;100.00;97370.47;5016377;28;20029;-75
2023/01/15 02:36:55;;;;;;;1.05;0.20;;;;;;;10.22;100.00;97344.41;5034907;28;20542;-77
2023/01/15 02:39:23;;;;;;;0.25;0.20;;;;;;;10.26;100.00;97371.75;5033483;28;20044;-76
2023/01/15 02:41:52;;;;;;;0.28;0.22;;;;;;;10.22;100.00;97360.63;5018029;28;20370;-75
2023/01/15 02:44:21;;;;;;;0.40;0.20;;;;;;;10.34;100.00;97378.72;5031037;28;20475;-75
2023/01/15 02:46:47;;;;;;;0.08;0.08;;;;;;;10.15;100.00;97349.09;5029718;28;20064;-76
2023/01/15 02:49:18;;;;;;;0.47;0.20;;;;;;;10.44;100.00;97389.75;5005987;28;20089;-74
2023/01/15 02:51:54;;;;;;;0.47;0.25;;;;;;;10.38;100.00;97377.22;5011319;28;20507;-74
2023/01/15 02:54:23;;;;;;;0.10;0.10;;;;;;;10.41;100.00;97385.66;5011101;28;20033;-77
2023/01/15 02:56:48;;;;;;;0.43;0.15;;;;;;;10.36;100.00;97379.31;5012103;28;20025;-75
2023/01/15 02:59:21;;;;;;;0.28;0.15;;;;;;;10.43;100.00;97388.94;5025798;28;20037;-77
2023/01/15 03:01:58;;;;;;;0.40;0.15;;;;;;;10.41;100.00;97360.50;5014030;28;20033;-76
2023/01/15 03:04:54;;;;;;;0.25;0.10;;;;;;;10.53;100.00;97381.06;5014222;28;20082;-76
2023/01/15 03:07:45;;;;;;;0.10;0.00;;;;;;;10.50;100.00;97378.00;5035999;28;20058;-76
2023/01/15 03:10:10;;;;;;;0.57;0.30;;;;;;;10.32;100.00;97346.50;5013817;28;20029;-75
2023/01/15 03:13:04;;;;;;;0.30;0.10;;;;;;;10.22;100.00;97344.41;5010188;28;20026;-76
2023/01/15 03:18:36;;;;;;;1.55;0.20;;;;;;;10.35;100.00;97356.03;5031519;28;20085;-73
2023/01/15 03:21:08;;;;;;;0.20;0.10;;;;;;;10.40;100.00;97359.69;5033192;28;20332;-76
2023/01/15 03:23:38;;;;;;;0.03;0.00;;;;;;;10.29;100.00;97334.28;5014652;28;20040;-77
2023/01/15 03:26:03;;;;;;;0.15;0.10;;;;;;;10.41;100.00;97334.28;5015758;28;20475;-76
2023/01/15 03:28:33;;;;;;;0.10;0.10;;;;;;;10.50;100.00;97346.34;5026791;28;20034;-75
2023/01/15 03:30:59;;;;;;;0.85;0.00;;;;;;;10.49;100.00;97319.56;5013715;28;20033;-76
2023/01/15 03:33:25;;;;;;;0.10;0.10;;;;;;;10.46;100.00;97328.97;5030924;28;20523;-77
2023/01/15 03:35:57;;;;;;;0.25;0.10;;;;;;;10.31;100.00;97337.59;5040637;28;20530;-76
2023/01/15 03:38:26;;;;;;;0.47;0.20;;;;;;;10.14;100.00;97336.66;5013502;28;20026;-76
2023/01/15 03:40:56;;;;;;;0.52;0.20;;;;;;;9.96;100.00;97317.88;5028109;28;20570;-75
2023/01/15 03:43:40;;;;;;;1.20;0.20;;;;;;;10.12;100.00;97346.88;5031205;28;20029;-75
2023/01/15 03:46:19;;;;;;;0.30;0.08;;;;;;;10.00;100.00;97329.84;5022043;28;20028;-76
2023/01/15 03:48:57;;;;;;;0.35;0.17;;;;;;;10.06;100.00;97328.88;5025939;28;20029;-75
2023/01/15 03:51:36;;;;;;;0.20;0.20;;;;;;;10.17;100.00;97338.88;5040472;28;20386;-78
2023/01/15 03:54:08;;;;;;;1.27;0.30;;;;;;;10.17;100.00;97341.59;5010207;28;20032;-75
2023/01/15 03:56:55;;;;;;;0.45;0.10;;;;;;;10.44;100.00;97346.50;5040054;28;20080;-75
2023/01/15 03:59:27;;;;;;;0.10;0.00;;;;;;;10.41;100.00;97334.28;5018955;28;20060;-75
2023/01/15 04:01:54;;;;;;;0.43;0.10;;;;;;;10.38;100.00;97339.34;5013751;28;20057;-76
2023/01/15 04:04:20;;;;;;;0.10;0.00;;;;;;;10.38;100.00;97318.53;5030129;28;20051;-74
2023/01/15 04:06:45;;;;;;;0.15;0.10;;;;;;;10.33;100.00;97309.50;5044492;28;20017;-76
2023/01/15 04:09:13;;;;;;;0.98;0.15;;;;;;;10.47;100.00;97318.97;5041185;28;20035;-75
2023/01/15 04:11:38;;;;;;;0.20;0.00;;;;;;;10.36;100.00;97317.94;5032318;28;20680;-77
2023/01/15 04:14:05;;;;;;;0.32;0.20;;;;;;;10.31;100.00;97307.84;5031244;28;20031;-74
2023/01/15 04:16:32;;;;;;;1.00;0.08;;;;;;;10.15;100.00;97280.72;5014207;28;20128;-76
2023/01/15 04:18:57;;;;;;;0.20;0.10;;;;;;;10.21;100.00;97279.75;5030767;28;20029;-76
2023/01/15 04:21:23;;;;;;;0.00;0.00;;;;;;;10.32;100.00;97308.66;5013689;28;20079;-74
2023/01/15 04:23:48;;;;;;;0.80;0.10;;;;;;;10.45;100.00;97294.91;5013168;28;20033;-75
2023/01/15 04:26:14;;;;;;;0.13;0.00;;;;;;;10.46;100.00;97271.38;5027578;28;20546;-74
2023/01/15 04:28:40;;;;;;;3.70;0.10;;;;;;;10.42;100.00;97273.72;5027500;28;20044;-76
2023/01/15 04:31:05;;;;;;;0.82;0.10;;;;;;;10.37;100.00;97262.81;5013401;28;20445;-76
2023/01/15 04:33:31;;;;;;;2.83;0.00;;;;;;;10.40;100.00;97267.75;5022187;28;20029;-76
2023/01/15 04:36:01;;;;;;;0.75;0.10;;;;;;;10.50;100.00;97280.66;5034916;28;20124;-75
2023/01/15 04:38:26;;;;;;;0.20;0.10;;;;;;;10.33;100.00;97250.03;5016039;28;20113;-75
2023/01/15 04:46:23;;;;;;;0.03;0.00;;;;;;;10.47;100.00;97254.09;5038325;28;20032;-75
2023/01/15 04:48:49;;;;;;;0.30;0.10;;;;;;;10.67;100.00;97276.13;5042037;28;20025;-75
2023/01/15 04:51:14;;;;;;;0.22;0.10;;;;;;;10.61;100.00;97282.50;5034003;28;20025;-74
2023/01/15 04:53:40;;;;;;;0.40;0.20;;;;;;;10.58;100.00;97241.59;5027583;28;20083;-75
2023/01/15 04:56:05;;;;;;;0.00;0.00;;;;;;;10.59;100.00;97284.63;5042458;28;20104;-72
2023/01/15 04:58:32;;;;;;;0.25;0.00;;;;;;;10.42;100.00;97352.13;5037421;28;20036;-74
2023/01/15 05:00:59;;;;;;;0.00;0.00;;;;;;;9.73;100.00;97359.19;5012496;28;20029;-73
2023/01/15 05:03:24;;;;;;;0.68;0.10;;;;;;;9.13;100.00;97371.72;5038337;28;20112;-75
2023/01/15 05:05:50;;;;;;;0.65;0.10;;;;;;;8.87;100.00;97372.91;5016060;28;20120;-76
2023/01/15 05:08:15;;;;;;;0.17;0.10;;;;;;;8.73;100.00;97404.63;5030657;28;20022;-73
2023/01/15 05:10:40;;;;;;;0.32;0.15;;;;;;;8.46;100.00;97382.56;5032830;28;20033;-76
2023/01/15 05:13:06;;;;;;;0.00;0.00;;;;;;;8.40;100.00;97386.13;5023647;28;20040;-74
2023/01/15 05:15:31;;;;;;;0.00;0.00;;;;;;;8.28;100.00;97412.16;5041140;28;20048;-75
2023/01/15 05:17:56;;;;;;;0.82;0.10;;;;;;;8.20;100.00;97428.59;5037528;28;20055;-76
2023/01/15 05:20:21;;;;;;;0.15;0.10;;;;;;;8.15;100.00;97412.25;5032044;28;20056;-75
2023/01/15 05:22:47;;;;;;;0.05;0.03;;;;;;;8.05;100.00;97426.25;5038300;28;20056;-77
2023/01/15 05:25:12;;;;;;;0.35;0.00;;;;;;;7.97;100.00;97427.34;5041625;28;20029;-72
2023/01/15 05:27:37;;;;;;;0.10;0.00;;;;;;;7.95;100.00;97434.81;5011339;28;20029;-73
2023/01/15 05:30:03;;;;;;;0.00;0.00;;;;;;;7.74;100.00;97427.94;5035591;28;20087;-74
2023/01/15 05:32:29;;;;;;;0.05;0.00;;;;;;;7.59;100.00;97403.22;5013526;28;20029;-75
2023/01/15 05:34:54;;;;;;;1.63;0.03;;;;;;;7.80;100.00;97454.00;5021275;28;20061;-74
2023/01/15 05:37:20;;;;;;;0.35;0.00;;;;;;;7.75;100.00;97450.31;5030127;28;20021;-73
2023/01/15 05:39:45;;;;;;;1.30;0.10;;;;;;;7.70;100.00;97459.03;5027916;28;20131;-74
2023/01/15 05:42:10;;;;;;;0.40;0.10;;;;;;;7.61;100.00;97457.66;5004674;28;20826;-74
2023/01/15 05:44:35;;;;;;;0.10;0.00;;;;;;;7.63;100.00;97461.78;5013175;28;20035;-75
2023/01/15 05:47:04;;;;;;;0.00;0.00;;;;;;;7.64;100.00;97474.19;5035706;28;20039;-74
2023/01/15 05:49:30;;;;;;;0.10;0.10;;;;;;;7.59;100.00;97465.94;5029176;28;20376;-74
2023/01/15 05:51:57;;;;;;;0.20;0.10;;;;;;;7.44;100.00;97446.56;5018676;28;20041;-74
2023/01/15 05:54:25;;;;;;;0.00;0.00;;;;;;;7.51;100.00;97455.44;5045972;28;20059;-73
2023/01/15 05:56:51;;;;;;;0.10;0.10;;;;;;;7.61;100.00;97481.88;5032836;28;20104;-74
2023/01/15 05:59:19;;;;;;;0.20;0.20;;;;;;;7.59;100.00;97492.84;5010724;28;20096;-74
2023/01/15 06:01:45;;;;;;;0.10;0.10;;;;;;;7.58;100.00;97511.94;5008691;28;20045;-74
2023/01/15 06:04:13;;;;;;;0.40;0.20;;;;;;;7.53;100.00;97504.50;5027736;28;20033;-73
2023/01/15 06:06:39;;;;;;;0.32;0.17;;;;;;;7.51;100.00;97508.44;5027528;28;20502;-71
2023/01/15 06:09:06;;;;;;;1.55;0.10;;;;;;;7.47;100.00;97511.56;5024266;28;20033;-74
2023/01/15 06:11:32;;;;;;;0.30;0.30;;;;;;;7.43;100.00;97504.94;5021534;28;20086;-75
2023/01/15 06:13:58;;;;;;;0.45;0.10;;;;;;;7.31;100.00;97500.47;5025353;28;20108;-74
2023/01/15 06:16:23;;;;;;;0.10;0.10;;;;;;;7.13;100.00;97488.56;5029264;28;20026;-76
2023/01/15 06:18:49;;;;;;;0.17;0.13;;;;;;;7.29;100.00;97521.41;5030685;28;20032;-74
2023/01/15 06:21:14;;;;;;;0.05;0.00;;;;;;;7.27;100.00;97518.09;5031716;28;20030;-76
2023/01/15 06:23:41;;;;;;;0.10;0.05;;;;;;;7.02;100.00;97494.59;5032270;28;20055;-74
2023/01/15 06:26:10;;;;;;;0.10;0.00;;;;;;;6.97;100.00;97506.00;5042060;28;20029;-74
2023/01/15 06:28:35;;;;;;;;;;;;;;;6.89;100.00;97516.13;5026423;28;20036;-73
2023/01/15 06:31:04;;;;;;;0.00;0.00;;;;;;;6.68;100.00;97512.69;5029970;28;19913;-73
2023/01/15 06:33:30;;;;;;;0.47;0.10;;;;;;;6.61;100.00;97527.19;5029113;28;20475;-74
2023/01/15 06:35:55;;;;;;;0.00;0.00;;;;;;;6.45;100.00;97523.91;5032722;28;20029;-75
2023/01/15 06:38:20;;;;;;;0.00;0.00;;;;;;;6.39;100.00;97521.19;5021382;28;20145;-75
2023/01/15 06:40:45;;;;;;;0.30;0.00;;;;;;;6.44;100.00;97532.97;5010215;28;20029;-74
2023/01/15 06:48:40;;;;;;;0.08;0.03;;;;;;;6.48;100.00;97600.56;5028792;28;20541;-80
2023/01/15 06:51:46;;;;;;;0.00;0.00;;;;;;;6.49;100.00;97588.78;5004393;28;20030;-83
2023/01/15 06:54:29;;;;;;;;;;;;;;;;;;;;;
2023/01/15 06:57:04;;;;;;;0.50;0.10;;;;;;;6.09;100.00;97567.28;5020761;28;20077;-81
2023/01/15 06:59:44;;;;;;;;;;;;;;;;;;;;;
2023/01/15 07:02:20;;;;;;;;;;;;;;;;;;;;;
2023/01/15 07:04:56;;;;;;;0.20;0.10;;;;;;;5.80;100.00;97593.44;5051633;28;20044;-81
2023/01/15 07:07:45;;;;;;;0.00;0.00;;;;;;;5.56;100.00;97580.56;5052535;28;20029;-81
2023/01/15 07:10:12;;;;;;;0.00;0.00;;;;;;;5.21;100.00;97529.66;5035864;28;20017;-80
2023/01/15 07:12:43;;;;;;;0.00;0.00;;;;;;;5.07;100.00;97527.97;5041054;28;20048;-81
2023/01/15 07:15:56;;;;;;;0.25;0.20;;;;;;;5.10;100.00;97559.75;5060269;28;20013;-87
2023/01/15 07:18:52;;;;;;;;;;;;;;;;;;;;;
2023/01/15 07:21:21;;;;;;;0.00;0.00;;;;;;;4.96;100.00;97572.25;5055401;28;20053;-80
2023/01/15 07:26:52;;;;;;;0.35;0.20;;;;;;;4.96;100.00;97602.56;5031375;28;19928;-81
2023/01/15 07:29:22;;;;;;;0.20;0.20;;;;;;;5.30;100.00;97657.19;5018573;28;20402;-78
2023/01/15 07:31:48;;;;;;;0.30;0.20;;;;;;;5.52;100.00;97697.34;5021830;28;20535;-81
2023/01/15 07:34:13;;;;;;;2.03;0.38;;;;;;;5.53;100.00;97688.25;5032802;28;20021;-79
2023/01/15 07:36:39;;;;;;;1.63;0.47;;;;;;;5.45;100.00;97673.19;5027050;28;20029;-77
2023/01/15 07:39:06;;;;;;;5.32;0.63;;;;;;;5.60;100.00;97697.16;5023896;28;20033;-74
2023/01/15 07:49:47;;;;;;;1.98;0.50;;;;;;;5.60;100.00;97697.16;5034606;28;20048;-75
2023/01/15 07:52:18;;;;;;;0.57;0.40;;;;;;;5.54;100.00;97700.66;5024270;28;20428;-75
2023/01/15 07:54:44;;;;;;;1.27;0.93;;;;;;;5.66;100.00;97713.31;5033239;28;20025;-75
2023/01/15 07:57:12;;;;;;;1.05;0.50;;;;;;;5.63;100.00;97719.09;5044273;28;20049;-77
2023/01/15 07:59:37;;;;;;;0.85;0.40;;;;;;;5.52;100.00;97716.94;5018015;28;20037;-77
2023/01/15 08:02:03;;;;;;;0.75;0.20;;;;;;;5.53;100.00;97707.88;5040184;28;20158;-76
2023/01/15 08:04:28;;;;;;;0.13;0.10;;;;;;;5.42;100.00;97701.22;5053328;28;20104;-75
2023/01/15 08:06:54;;;;;;;0.68;0.20;;;;;;;5.44;100.00;97725.16;5031119;28;20063;-75
2023/01/15 08:09:19;;;;;;;0.25;0.22;;;;;;;5.48;100.00;97729.94;5013337;28;20057;-75
2023/01/15 08:17:12;;;;;;;2.38;0.10;;;;;;;5.38;100.00;97721.41;5034239;28;20044;-75
2023/01/15 08:19:37;;;;;;;0.52;0.30;;;;;;;5.48;100.00;97734.47;5039448;28;20028;-77
2023/01/15 08:22:03;;;;;;;0.40;0.25;;;;;;;5.43;100.00;97751.16;4994438;28;20117;-75
2023/01/15 08:24:28;;;;;;;0.20;0.20;;;;;;;5.41;100.00;97752.38;5013345;28;20415;-76
2023/01/15 08:26:54;;;;;;;0.30;0.30;;;;;;;5.44;100.00;97763.53;5013634;28;20083;-76
2023/01/15 08:29:20;;;;;;;0.20;0.20;;;;;;;5.41;100.00;97758.56;5020615;28;20041;-76
2023/01/15 08:31:46;;;;;;;0.85;0.43;;;;;;;5.39;100.00;97755.25;5014389;28;20091;-77
2023/01/15 08:34:11;;;;;;;0.38;0.25;;;;;;;5.36;100.00;97749.44;5030061;28;20029;-77
2023/01/15 08:36:36;;;;;;;0.73;0.30;;;;;;;5.45;100.00;97765.19;5030448;28;20064;-77
2023/01/15 08:39:03;;;;;;;0.35;0.20;;;;;;;5.51;100.00;97776.19;5007075;28;20514;-77
2023/01/15 08:41:29;;;;;;;0.32;0.20;;;;;;;5.60;100.00;97783.03;5007470;28;20083;-77
2023/01/15 08:43:54;;;;;;;0.30;0.10;;;;;;;5.50;100.00;97786.06;5025959;28;20059;-77
2023/01/15 08:46:19;;;;;;;0.43;0.20;;;;;;;5.46;100.00;97774.06;5028727;28;20026;-76
2023/01/15 08:48:45;;;;;;;0.15;0.15;;;;;;;5.54;100.00;97781.13;5008901;28;20071;-75
2023/01/15 08:51:10;;;;;;;0.30;0.20;;;;;;;5.62;100.00;97792.53;5017910;28;20552;-73
2023/01/15 08:53:36;;;;;;;0.32;0.30;;;;;;;5.47;100.00;97779.22;5036378;28;20391;-75
2023/01/15 08:56:01;;;;;;;0.70;0.20;;;;;;;5.60;100.00;97799.13;5008593;28;20071;-75
2023/01/15 08:58:31;;;;;;;0.20;0.10;;;;;;;5.52;100.00;97784.00;5027816;28;20272;-76
2023/01/15 09:01:08;;;;;;;0.88;0.10;;;;;;;5.45;100.00;97792.03;5011391;28;20022;-73
2023/01/15 09:03:34;;;;;;;0.13;0.10;;;;;;;5.57;100.00;97821.00;5017010;28;20086;-73
2023/01/15 09:06:01;;;;;;;0.85;0.17;;;;;;;5.44;100.00;97814.50;5040577;28;20029;-74
2023/01/15 09:08:27;;;;;;;0.63;0.20;;;;;;;5.48;100.00;97829.19;5013324;28;20060;-72
2023/01/15 09:11:00;;;;;;;2.20;0.20;;;;;;;5.53;100.00;97823.25;5043660;28;20029;-72
2023/01/15 09:13:26;;;;;;;0.40;0.10;;;;;;;5.33;100.00;97815.03;5040608;28;20026;-75
2023/01/15 09:15:52;;;;;;;0.30;0.03;;;;;;;5.36;100.00;97829.91;5017642;28;20642;-74
2023/01/15 09:18:19;;;;;;;2.00;0.30;;;;;;;5.34;100.00;97838.13;5011618;28;20041;-74
2023/01/15 09:20:46;;;;;;;0.20;0.08;;;;;;;5.35;100.00;97839.81;5010803;28;20044;-77
2023/01/15 09:23:11;;;;;;;0.20;0.10;;;;;;;5.38;100.00;97839.41;5015608;28;20049;-74
2023/01/15 09:25:36;;;;;;;0.10;0.03;;;;;;;5.10;100.00;97791.13;5031926;28;20027;-76
2023/01/15 09:28:02;;;;;;;0.10;0.00;;;;;;;5.33;100.00;97841.84;5012823;28;20017;-74
2023/01/15 09:30:28;;;;;;;0.43;0.10;;;;;;;5.30;100.00;97858.34;5012872;28;20033;-79
2023/01/15 09:32:54;;;;;;;0.50;0.20;;;;;;;5.38;100.00;97866.25;5024344;28;20045;-75
2023/01/15 09:35:21;;;;;;;0.10;0.08;;;;;;;5.30;100.00;97868.25;5016054;28;20064;-75
2023/01/15 09:37:52;;;;;;;0.20;0.20;;;;;;;5.29;100.00;97880.78;5036505;28;20543;-75
2023/01/15 09:40:47;;;;;;;0.70;0.40;;;;;;;5.31;100.00;97916.31;5031821;28;20026;-80
2023/01/15 09:43:40;;;;;;;0.57;0.40;;;;;;;5.34;100.00;97913.22;5028307;28;20483;-79
2023/01/15 09:46:15;;;;;;;1.38;0.30;;;;;;;5.35;100.00;97903.34;5017244;28;20009;-74
2023/01/15 09:48:46;;;;;;;0.10;0.03;;;;;;;5.39;100.00;97902.75;5013440;28;20029;-76
2023/01/15 09:51:39;;;;;;;2.05;0.30;;;;;;;5.34;100.00;97875.69;5032518;28;20035;-73
2023/01/15 09:54:35;;;;;;;0.20;0.20;;;;;;;5.41;100.00;97898.03;4967234;28;20038;-77
2023/01/15 09:57:02;;;;;;;0.20;0.10;;;;;;;5.05;100.00;97900.78;5016418;28;20415;-75
2023/01/15 09:59:37;;;;;;;0.20;0.10;;;;;;;5.15;100.00;97901.31;5020449;28;20032;-85
2023/01/15 10:02:24;;;;;;;0.65;0.10;;;;;;;4.97;100.00;97906.25;5019014;28;20029;-75
2023/01/15 10:04:55;;;;;;;0.40;0.20;;;;;;;5.00;100.00;97914.78;5015510;28;20021;-75
2023/01/15 10:07:35;;;;;;;0.90;0.08;;;;;;;5.07;100.00;97940.81;5036644;28;20043;-74
2023/01/15 10:10:09;;;;;;;0.40;0.10;;;;;;;4.93;100.00;97948.72;5009418;28;20032;-74
2023/01/15 10:12:35;;;;;;;0.17;0.08;;;;;;;4.91;100.00;97940.03;5038046;28;20060;-74
2023/01/15 10:15:26;;;;;;;0.63;0.30;;;;;;;4.95;100.00;97960.09;5015604;28;20056;-75
2023/01/15 10:17:55;;;;;;;0.85;0.45;;;;;;;4.95;100.00;97970.81;5036972;28;20033;-74
2023/01/15 10:20:51;;;;;;;0.22;0.10;;;;;;;4.91;100.00;97950.75;5041579;28;20126;-75
2023/01/15 10:23:52;;;;;;;0.13;0.10;;;;;;;4.86;100.00;97946.97;5015152;28;20107;-74
2023/01/15 10:26:41;;;;;;;0.20;0.10;;;;;;;4.85;100.00;97956.88;4946570;29;20170;-76
2023/01/15 10:29:19;;;;;;;1.08;0.10;;;;;;;5.00;100.00;97954.97;4991461;28;20037;-74
2023/01/15 10:32:04;;;;;;;0.32;0.10;;;;;;;4.94;100.00;97945.00;5021983;28;20021;-75
2023/01/15 10:34:47;;;;;;;0.00;0.00;;;;;;;4.90;100.00;97959.81;5060457;28;20474;-75
2023/01/15 10:37:40;;;;;;;0.80;0.20;;;;;;;4.92;100.00;97979.19;5059444;28;20021;-75
2023/01/15 10:40:24;;;;;;;0.90;0.20;;;;;;;4.72;100.00;97962.88;5033015;28;20441;-75
2023/01/15 10:43:25;;;;;;;0.70;0.22;;;;;;;4.51;100.00;97962.81;4996501;28;20161;-74
2023/01/15 10:45:55;;;;;;;0.20;0.20;;;;;;;4.73;100.00;97977.94;5027725;28;20033;-77
2023/01/15 10:48:31;;;;;;;0.45;0.10;;;;;;;4.72;100.00;97964.75;5021103;28;20025;-74
2023/01/15 10:51:02;;;;;;;0.10;0.10;;;;;;;4.84;100.00;97990.84;5022761;28;20022;-74
2023/01/15 10:53:39;;;;;;;1.30;0.10;;;;;;;4.72;100.00;97980.81;5006234;28;20032;-74
2023/01/15 10:56:15;;;;;;;0.50;0.20;;;;;;;4.68;100.00;97993.72;5021716;28;20033;-74
2023/01/15 10:58:53;;;;;;;1.15;0.20;;;;;;;4.37;100.00;97969.81;5026296;28;20034;-74
2023/01/15 11:01:22;;;;;;;0.45;0.20;;;;;;;4.50;100.00;97995.94;5007429;28;20045;-73
2023/01/15 11:03:48;;;;;;;0.10;0.00;;;;;;;4.39;100.00;97995.41;5027838;28;20501;-76
2023/01/15 11:06:19;;;;;;;0.77;0.20;;;;;;;4.39;100.00;97999.94;5014436;28;20029;-74
2023/01/15 11:08:50;;;;;;;1.08;0.35;;;;;;;4.20;100.00;98000.47;5012367;28;20049;-74
2023/01/15 11:19:36;;;;;;;1.13;0.30;;;;;;;4.40;100.00;98031.03;5028332;28;20037;-75
2023/01/15 11:22:10;;;;;;;0.30;0.30;;;;;;;4.18;100.00;97998.78;5034537;28;20063;-74
2023/01/15 11:24:46;;;;;;;0.13;0.13;;;;;;;4.29;100.00;98004.72;5023122;28;20695;-74
2023/01/15 11:27:19;;;;;;;0.82;0.30;;;;;;;4.25;100.00;98012.28;5019833;28;20025;-74
2023/01/15 11:29:49;;;;;;;0.63;0.40;;;;;;;4.22;100.00;98009.13;5046537;28;20087;-74
2023/01/15 11:32:27;;;;;;;1.13;0.40;;;;;;;4.20;100.00;98033.44;5028770;28;20391;-74
2023/01/15 11:34:57;;;;;;;0.50;0.20;;;;;;;4.16;100.00;98035.63;5013764;28;20025;-75
2023/01/15 11:37:22;;;;;;;0.10;0.10;;;;;;;3.91;100.00;98026.16;5036853;28;20040;-74
2023/01/15 11:39:55;;;;;;;0.47;0.10;;;;;;;3.87;100.00;98006.09;5015617;28;20029;-74
2023/01/15 11:50:55;;;;;;;0.30;0.10;;;;;;;4.00;100.00;98030.41;5027805;28;20095;-74
2023/01/15 11:53:26;;;;;;;;;;;;;;;3.92;100.00;98019.78;5022890;28;20113;-75
2023/01/15 11:56:01;;;;;;;2.25;0.52;;;;;;;3.91;100.00;98018.13;5016813;28;19913;-75
2023/01/15 11:58:30;;;;;;;2.30;0.43;;;;;;;3.88;100.00;98013.13;5017041;28;20115;-75
2023/01/15 12:00:57;;;;;;;;;;;;;;;3.93;100.00;98030.31;5007994;28;20048;-75
2023/01/15 12:03:27;;;;;;;1.35;0.40;;;;;;;3.92;100.00;98038.50;5017627;28;20346;-76
2023/01/15 12:05:56;;;;;;;0.82;0.50;;;;;;;3.94;100.00;98031.16;5024085;28;20750;-76
2023/01/15 12:08:24;;;;;;;0.70;0.40;;;;;;;3.99;100.00;98026.09;5012716;28;20547;-76
2023/01/15 12:11:03;;;;;;;2.38;0.93;;;;;;;3.73;100.00;98011.22;5018912;28;20076;-75
2023/01/15 12:13:49;;;;;;;0.90;0.60;;;;;;;3.65;100.00;98000.59;5017426;28;20629;-75
2023/01/15 12:16:33;;;;;;;0.77;0.40;;;;;;;3.67;100.00;98000.44;5025407;28;20033;-75
2023/01/15 12:19:05;;;;;;;2.08;0.70;;;;;;;3.89;100.00;98014.78;5012617;28;20372;-76
2023/01/15 12:21:49;;;;;;;1.88;1.25;;;;;;;3.96;100.00;98021.09;5032951;28;20117;-75
2023/01/15 12:24:33;;;;;;;3.47;0.93;;;;;;;3.93;100.00;98018.78;5016474;28;20108;-75
2023/01/15 12:27:24;;;;;;;2.05;0.52;;;;;;;3.78;100.00;98002.69;5019098;28;20024;-75
2023/01/15 12:30:01;;;;;;;0.85;0.43;;;;;;;3.77;100.00;98005.53;5019420;28;22495;-75
2023/01/15 12:32:39;;;;;;;3.50;0.40;;;;;;;3.82;100.00;97995.13;5015977;28;20048;-75
2023/01/15 12:35:27;;;;;;;2.13;0.45;;;;;;;4.04;100.00;98012.16;5012023;28;20488;-74
2023/01/15 12:38:03;;;;;;;5.43;2.08;;;;;;;4.00;100.00;98003.66;4992870;28;20044;-74
2023/01/15 12:40:49;;;;;;;5.90;1.60;;;;;;;4.08;100.00;98019.63;5022797;28;20675;-75
2023/01/15 12:46:11;;;;;;;7.53;0.93;;;;;;;3.93;100.00;98011.59;5031432;28;20111;-76